sensor_id;sensor_type;location;lat;lon;timestamp;pressure;altitude;pressure_sealevel;temperature;humidity
35023;BME280;21214;44.912;8.204;2022-12-18T00:01:34;100851.94;;;-0.44;100.00
35023;BME280;21214;44.912;8.204;2022-12-18T00:04:01;100850.16;;;-0.42;100.00
35023;BME280;21214;44.912;8.204;2022-12-18T00:06:27;100860.44;;;-0.38;100.00
35023;BME280;21214;44.912;8.204;2022-12-18T00:08:53;100856.97;;;-0.37;100.00
35023;BME280;21214;44.912;8.204;2022-12-18T00:11:19;100863.75;;;-0.33;100.00
35023;BME280;21214;44.912;8.204;2022-12-18T00:13:45;100863.69;;;-0.30;100.00
35023;BME280;21214;44.912;8.204;2022-12-18T00:16:11;100858.50;;;-0.30;100.00
35023;BME280;21214;44.912;8.204;2022-12-18T00:18:37;100862.88;;;-0.32;100.00
35023;BME280;21214;44.912;8.204;2022-12-18T00:21:04;100861.97;;;-0.31;100.00
35023;BME280;21214;44.912;8.204;2022-12-18T00:23:30;100865.47;;;-0.32;100.00
35023;BME280;21214;44.912;8.204;2022-12-18T00:25:59;100881.03;;;-0.32;100.00
35023;BME280;21214;44.912;8.204;2022-12-18T00:28:25;100885.28;;;-0.30;100.00
35023;BME280;21214;44.912;8.204;2022-12-18T00:30:51;100889.63;;;-0.30;100.00
35023;BME280;21214;44.912;8.204;2022-12-18T00:33:17;100892.25;;;-0.32;100.00
35023;BME280;21214;44.912;8.204;2022-12-18T00:35:42;100894.81;;;-0.30;100.00
35023;BME280;21214;44.912;8.204;2022-12-18T00:38:08;100908.72;;;-0.34;100.00
35023;BME280;21214;44.912;8.204;2022-12-18T00:40:34;100899.22;;;-0.34;100.00
35023;BME280;21214;44.912;8.204;2022-12-18T00:42:59;100888.06;;;-0.37;100.00
35023;BME280;21214;44.912;8.204;2022-12-18T00:45:29;100896.69;;;-0.35;100.00
35023;BME280;21214;44.912;8.204;2022-12-18T00:47:55;100913.84;;;-0.31;100.00
35023;BME280;21214;44.912;8.204;2022-12-18T00:50:21;100910.28;;;-0.27;100.00
35023;BME280;21214;44.912;8.204;2022-12-18T00:52:47;100913.69;;;-0.25;100.00
35023;BME280;21214;44.912;8.204;2022-12-18T00:55:13;100921.50;;;-0.27;100.00
35023;BME280;21214;44.912;8.204;2022-12-18T00:57:38;100916.19;;;-0.22;100.00
35023;BME280;21214;44.912;8.204;2022-12-18T01:00:04;100925.78;;;-0.24;100.00
35023;BME280;21214;44.912;8.204;2022-12-18T01:02:31;100929.16;;;-0.22;100.00
35023;BME280;21214;44.912;8.204;2022-12-18T01:04:56;100936.03;;;-0.21;100.00
35023;BME280;21214;44.912;8.204;2022-12-18T01:07:21;100939.47;;;-0.19;100.00
35023;BME280;21214;44.912;8.204;2022-12-18T01:09:47;100946.34;;;-0.18;100.00
35023;BME280;21214;44.912;8.204;2022-12-18T01:12:12;100949.75;;;-0.16;100.00
35023;BME280;21214;44.912;8.204;2022-12-18T01:14:38;100944.56;;;-0.16;100.00
35023;BME280;21214;44.912;8.204;2022-12-18T01:17:03;100953.22;;;-0.17;100.00
35023;BME280;21214;44.912;8.204;2022-12-18T01:19:32;100953.16;;;-0.14;100.00
35023;BME280;21214;44.912;8.204;2022-12-18T01:21:57;100959.97;;;-0.12;100.00
35023;BME280;21214;44.912;8.204;2022-12-18T01:24:23;100959.94;;;-0.10;100.00
35023;BME280;21214;44.912;8.204;2022-12-18T01:26:48;100963.53;;;-0.14;100.00
35023;BME280;21214;44.912;8.204;2022-12-18T01:29:13;100958.41;;;-0.17;100.00
35023;BME280;21214;44.912;8.204;2022-12-18T01:31:39;100965.25;;;-0.13;100.00
35023;BME280;21214;44.912;8.204;2022-12-18T01:34:05;100960.94;;;-0.14;100.00
35023;BME280;21214;44.912;8.204;2022-12-18T01:36:34;100960.97;;;-0.16;100.00
35023;BME280;21214;44.912;8.204;2022-12-18T01:39:00;100963.53;;;-0.14;100.00
35023;BME280;21214;44.912;8.204;2022-12-18T01:41:27;100965.25;;;-0.13;100.00
35023;BME280;21214;44.912;8.204;2022-12-18T01:47:00;100980.53;;;-0.04;100.00
35023;BME280;21214;44.912;8.204;2022-12-18T01:49:25;100984.84;;;-0.03;100.00
35023;BME280;21214;44.912;8.204;2022-12-18T01:51:51;100981.38;;;-0.02;100.00
35023;BME280;21214;44.912;8.204;2022-12-18T01:54:17;100987.38;;;0.00;100.00
35023;BME280;21214;44.912;8.204;2022-12-18T01:56:42;100985.56;;;0.02;100.00
35023;BME280;21214;44.912;8.204;2022-12-18T01:59:08;100982.00;;;0.06;100.00
35023;BME280;21214;44.912;8.204;2022-12-18T02:01:35;100988.81;;;0.10;100.00
35023;BME280;21214;44.912;8.204;2022-12-18T02:04:21;100980.16;;;0.11;100.00
35023;BME280;21214;44.912;8.204;2022-12-18T02:06:50;100980.91;;;0.15;100.00
35023;BME280;21214;44.912;8.204;2022-12-18T02:09:20;100984.31;;;0.17;100.00
35023;BME280;21214;44.912;8.204;2022-12-18T02:16:53;100981.38;;;0.29;100.00
35023;BME280;21214;44.912;8.204;2022-12-18T02:27:24;100988.03;;;0.37;100.00
35023;BME280;21214;44.912;8.204;2022-12-18T02:29:51;100986.25;;;0.39;100.00
35023;BME280;21214;44.912;8.204;2022-12-18T02:32:18;100981.91;;;0.40;100.00
35023;BME280;21214;44.912;8.204;2022-12-18T02:34:45;100986.16;;;0.43;100.00
35023;BME280;21214;44.912;8.204;2022-12-18T02:37:15;100987.00;;;0.43;100.00
35023;BME280;21214;44.912;8.204;2022-12-18T02:39:42;100988.72;;;0.44;100.00
35023;BME280;21214;44.912;8.204;2022-12-18T02:42:10;100991.28;;;0.46;100.00
35023;BME280;21214;44.912;8.204;2022-12-18T02:44:43;100997.31;;;0.46;100.00
35023;BME280;21214;44.912;8.204;2022-12-18T02:47:14;101002.56;;;0.45;100.00
35023;BME280;21214;44.912;8.204;2022-12-18T02:54:51;100999.09;;;0.44;100.00
35023;BME280;21214;44.912;8.204;2022-12-18T02:59:58;101002.53;;;0.46;100.00
35023;BME280;21214;44.912;8.204;2022-12-18T03:02:33;101008.56;;;0.47;100.00
35023;BME280;21214;44.912;8.204;2022-12-18T03:05:12;101009.31;;;0.50;100.00
35023;BME280;21214;44.912;8.204;2022-12-18T03:07:42;101008.38;;;0.53;100.00
35023;BME280;21214;44.912;8.204;2022-12-18T03:10:11;101008.50;;;0.48;100.00
35023;BME280;21214;44.912;8.204;2022-12-18T03:12:40;101007.53;;;0.52;100.00
35023;BME280;21214;44.912;8.204;2022-12-18T03:15:08;101018.59;;;0.59;100.00
35023;BME280;21214;44.912;8.204;2022-12-18T03:17:36;101014.19;;;0.61;100.00
35023;BME280;21214;44.912;8.204;2022-12-18T03:20:04;101022.84;;;0.61;100.00
35023;BME280;21214;44.912;8.204;2022-12-18T03:22:32;101024.59;;;0.61;100.00
35023;BME280;21214;44.912;8.204;2022-12-18T03:24:58;101035.88;;;0.60;100.00
35023;BME280;21214;44.912;8.204;2022-12-18T03:27:26;101027.47;;;0.52;100.00
35023;BME280;21214;44.912;8.204;2022-12-18T03:30:01;101029.34;;;0.47;100.00
35023;BME280;21214;44.912;8.204;2022-12-18T03:32:36;101034.59;;;0.44;100.00
35023;BME280;21214;44.912;8.204;2022-12-18T03:35:05;101034.59;;;0.44;100.00
35023;BME280;21214;44.912;8.204;2022-12-18T03:37:34;101035.38;;;0.47;100.00
35023;BME280;21214;44.912;8.204;2022-12-18T03:40:00;101041.34;;;0.51;100.00
35023;BME280;21214;44.912;8.204;2022-12-18T03:45:23;101033.19;;;0.63;100.00
35023;BME280;21214;44.912;8.204;2022-12-18T03:50:34;101039.09;;;0.68;100.00
35023;BME280;21214;44.912;8.204;2022-12-18T03:55:48;101028.72;;;0.68;100.00
35023;BME280;21214;44.912;8.204;2022-12-18T03:58:17;101038.19;;;0.70;100.00
35023;BME280;21214;44.912;8.204;2022-12-18T04:00:55;101043.94;;;0.80;100.00
35023;BME280;21214;44.912;8.204;2022-12-18T04:03:21;101052.50;;;0.83;100.00
35023;BME280;21214;44.912;8.204;2022-12-18T04:05:50;101049.84;;;0.85;100.00
35023;BME280;21214;44.912;8.204;2022-12-18T04:08:19;101054.06;;;0.89;100.00
35023;BME280;21214;44.912;8.204;2022-12-18T04:10:58;101049.66;;;0.91;100.00
35023;BME280;21214;44.912;8.204;2022-12-18T04:13:32;101060.03;;;0.93;100.00
35023;BME280;21214;44.912;8.204;2022-12-18T04:16:00;101058.28;;;0.93;100.00
35023;BME280;21214;44.912;8.204;2022-12-18T04:18:27;101050.50;;;0.93;100.00
35023;BME280;21214;44.912;8.204;2022-12-18T04:20:53;101061.66;;;0.95;100.00
35023;BME280;21214;44.912;8.204;2022-12-18T04:23:19;101068.56;;;0.96;100.00
35023;BME280;21214;44.912;8.204;2022-12-18T04:25:46;101067.69;;;0.97;100.00
35023;BME280;21214;44.912;8.204;2022-12-18T04:28:17;101062.38;;;1.00;100.00
35023;BME280;21214;44.912;8.204;2022-12-18T04:30:42;101072.78;;;1.00;100.00
35023;BME280;21214;44.912;8.204;2022-12-18T04:33:12;101070.28;;;0.97;100.00
35023;BME280;21214;44.912;8.204;2022-12-18T04:35:41;101077.19;;;0.98;100.00
35023;BME280;21214;44.912;8.204;2022-12-18T04:38:07;101080.78;;;0.94;100.00
35023;BME280;21214;44.912;8.204;2022-12-18T04:40:37;101079.19;;;0.89;100.00
35023;BME280;21214;44.912;8.204;2022-12-18T04:43:08;101081.94;;;0.84;100.00
35023;BME280;21214;44.912;8.204;2022-12-18T04:45:33;101082.88;;;0.81;100.00
35023;BME280;21214;44.912;8.204;2022-12-18T04:47:59;101087.06;;;0.87;100.00
35023;BME280;21214;44.912;8.204;2022-12-18T04:50:25;101087.97;;;0.85;100.00
35023;BME280;21214;44.912;8.204;2022-12-18T04:52:50;101093.22;;;0.83;100.00
35023;BME280;21214;44.912;8.204;2022-12-18T04:55:16;101092.44;;;0.81;100.00
35023;BME280;21214;44.912;8.204;2022-12-18T04:57:42;101102.88;;;0.78;100.00
35023;BME280;21214;44.912;8.204;2022-12-18T05:00:07;101108.88;;;0.81;100.00
35023;BME280;21214;44.912;8.204;2022-12-18T05:02:33;101111.41;;;0.83;100.00
35023;BME280;21214;44.912;8.204;2022-12-18T05:04:58;101111.47;;;0.81;100.00
35023;BME280;21214;44.912;8.204;2022-12-18T05:07:23;101119.31;;;0.80;100.00
35023;BME280;21214;44.912;8.204;2022-12-18T05:09:49;101116.69;;;0.80;100.00
35023;BME280;21214;44.912;8.204;2022-12-18T05:12:14;101117.75;;;0.73;100.00
35023;BME280;21214;44.912;8.204;2022-12-18T05:14:40;101116.03;;;0.73;100.00
35023;BME280;21214;44.912;8.204;2022-12-18T05:17:06;101132.63;;;0.68;100.00
35023;BME280;21214;44.912;8.204;2022-12-18T05:19:31;101139.78;;;0.60;100.00
35023;BME280;21214;44.912;8.204;2022-12-18T05:21:56;101132.97;;;0.56;100.00
35023;BME280;21214;44.912;8.204;2022-12-18T05:24:22;101131.19;;;0.58;100.00
35023;BME280;21214;44.912;8.204;2022-12-18T05:26:48;101128.50;;;0.61;100.00
35023;BME280;21214;44.912;8.204;2022-12-18T05:29:13;101151.88;;;0.61;100.00
35023;BME280;21214;44.912;8.204;2022-12-18T05:31:39;101152.59;;;0.66;100.00
35023;BME280;21214;44.912;8.204;2022-12-18T05:34:04;101148.38;;;0.62;100.00
35023;BME280;21214;44.912;8.204;2022-12-18T05:36:30;101151.00;;;0.60;100.00
35023;BME280;21214;44.912;8.204;2022-12-18T05:38:55;101149.22;;;0.64;100.00
35023;BME280;21214;44.912;8.204;2022-12-18T05:41:21;101158.63;;;0.68;100.00
35023;BME280;21214;44.912;8.204;2022-12-18T05:43:46;101165.34;;;0.75;100.00
35023;BME280;21214;44.912;8.204;2022-12-18T05:46:13;101170.78;;;0.66;100.00
35023;BME280;21214;44.912;8.204;2022-12-18T05:48:39;101176.69;;;0.71;100.00
35023;BME280;21214;44.912;8.204;2022-12-18T05:51:05;101177.63;;;0.70;100.00
35023;BME280;21214;44.912;8.204;2022-12-18T05:53:31;101174.28;;;0.65;100.00
35023;BME280;21214;44.912;8.204;2022-12-18T05:55:59;101180.25;;;0.68;100.00
35023;BME280;21214;44.912;8.204;2022-12-18T05:58:25;101182.81;;;0.70;100.00
35023;BME280;21214;44.912;8.204;2022-12-18T06:00:50;101182.72;;;0.73;100.00
35023;BME280;21214;44.912;8.204;2022-12-18T06:03:16;101187.03;;;0.74;100.00
35023;BME280;21214;44.912;8.204;2022-12-18T06:05:42;101178.22;;;0.79;100.00
35023;BME280;21214;44.912;8.204;2022-12-18T06:08:08;101179.91;;;0.80;100.00
35023;BME280;21214;44.912;8.204;2022-12-18T06:10:33;101187.53;;;0.88;100.00
35023;BME280;21214;44.912;8.204;2022-12-18T06:12:59;101195.31;;;0.88;100.00
35023;BME280;21214;44.912;8.204;2022-12-18T06:15:24;101192.53;;;0.94;100.00
35023;BME280;21214;44.912;8.204;2022-12-18T06:17:50;101198.50;;;0.98;100.00
35023;BME280;21214;44.912;8.204;2022-12-18T06:20:15;101189.81;;;0.99;100.00
35023;BME280;21214;44.912;8.204;2022-12-18T06:22:41;101201.91;;;1.00;100.00
35023;BME280;21214;44.912;8.204;2022-12-18T06:25:06;101201.06;;;0.99;100.00
35023;BME280;21214;44.912;8.204;2022-12-18T06:27:32;101198.38;;;1.02;100.00
35023;BME280;21214;44.912;8.204;2022-12-18T06:29:59;101205.13;;;1.08;100.00
35023;BME280;21214;44.912;8.204;2022-12-18T06:32:24;101209.41;;;1.10;100.00
35023;BME280;21214;44.912;8.204;2022-12-18T06:34:49;101219.88;;;1.07;100.00
35023;BME280;21214;44.912;8.204;2022-12-18T06:37:15;101216.50;;;1.05;100.00
35023;BME280;21214;44.912;8.204;2022-12-18T06:39:40;101216.00;;;0.91;100.00
35023;BME280;21214;44.912;8.204;2022-12-18T06:42:06;101224.69;;;0.90;100.00
35023;BME280;21214;44.912;8.204;2022-12-18T06:44:31;101222.03;;;0.93;100.00
35023;BME280;21214;44.912;8.204;2022-12-18T06:46:57;101220.38;;;0.89;100.00
35023;BME280;21214;44.912;8.204;2022-12-18T06:49:22;101229.16;;;0.85;100.00
35023;BME280;21214;44.912;8.204;2022-12-18T06:51:47;101227.47;;;0.84;100.00
35023;BME280;21214;44.912;8.204;2022-12-18T06:54:13;101233.50;;;0.85;100.00
35023;BME280;21214;44.912;8.204;2022-12-18T06:56:38;101237.94;;;0.81;100.00
35023;BME280;21214;44.912;8.204;2022-12-18T06:59:03;101244.78;;;0.83;100.00
35023;BME280;21214;44.912;8.204;2022-12-18T07:01:29;101248.19;;;0.87;100.00
35023;BME280;21214;44.912;8.204;2022-12-18T07:03:55;101249.22;;;0.80;100.00
35023;BME280;21214;44.912;8.204;2022-12-18T07:06:22;101251.66;;;0.86;100.00
35023;BME280;21214;44.912;8.204;2022-12-18T07:08:48;101249.78;;;0.91;100.00
35023;BME280;21214;44.912;8.204;2022-12-18T07:11:14;101252.44;;;0.90;100.00
35023;BME280;21214;44.912;8.204;2022-12-18T07:13:39;101258.41;;;0.93;100.00
35023;BME280;21214;44.912;8.204;2022-12-18T07:16:08;101262.75;;;0.93;100.00
35023;BME280;21214;44.912;8.204;2022-12-18T07:18:34;101271.25;;;0.99;100.00
35023;BME280;21214;44.912;8.204;2022-12-18T07:21:06;101271.25;;;0.99;100.00
35023;BME280;21214;44.912;8.204;2022-12-18T07:23:33;101273.00;;;0.99;100.00
35023;BME280;21214;44.912;8.204;2022-12-18T07:26:08;101280.72;;;1.00;100.00
35023;BME280;21214;44.912;8.204;2022-12-18T07:28:34;101283.94;;;1.11;100.00
35023;BME280;21214;44.912;8.204;2022-12-18T07:31:03;101289.34;;;1.02;100.00
35023;BME280;21214;44.912;8.204;2022-12-18T07:33:29;101286.75;;;1.02;100.00
35023;BME280;21214;44.912;8.204;2022-12-18T07:35:54;101302.28;;;1.05;100.00
35023;BME280;21214;44.912;8.204;2022-12-18T07:38:20;101297.88;;;1.07;100.00
35023;BME280;21214;44.912;8.204;2022-12-18T07:40:45;101303.78;;;1.14;100.00
35023;BME280;21214;44.912;8.204;2022-12-18T07:43:11;101304.72;;;1.11;100.00
35023;BME280;21214;44.912;8.204;2022-12-18T07:45:36;101313.25;;;1.16;100.00
35023;BME280;21214;44.912;8.204;2022-12-18T07:48:02;101319.22;;;1.20;100.00
35023;BME280;21214;44.912;8.204;2022-12-18T07:50:27;101321.63;;;1.28;100.00
35023;BME280;21214;44.912;8.204;2022-12-18T07:52:53;101316.41;;;1.28;100.00
35023;BME280;21214;44.912;8.204;2022-12-18T07:55:18;101318.19;;;1.26;100.00
35023;BME280;21214;44.912;8.204;2022-12-18T07:57:43;101326.09;;;1.22;100.00
35023;BME280;21214;44.912;8.204;2022-12-18T08:00:09;101325.19;;;1.23;100.00
35023;BME280;21214;44.912;8.204;2022-12-18T08:02:42;101322.44;;;1.30;100.00
35023;BME280;21214;44.912;8.204;2022-12-18T08:05:08;101333.56;;;1.35;100.00
35023;BME280;21214;44.912;8.204;2022-12-18T08:07:33;101329.97;;;1.39;100.00
35023;BME280;21214;44.912;8.204;2022-12-18T08:09:59;101332.41;;;1.45;100.00
35023;BME280;21214;44.912;8.204;2022-12-18T08:12:24;101333.13;;;1.50;100.00
35023;BME280;21214;44.912;8.204;2022-12-18T08:14:49;101332.97;;;1.56;100.00
35023;BME280;21214;44.912;8.204;2022-12-18T08:17:15;101342.44;;;1.58;100.00
35023;BME280;21214;44.912;8.204;2022-12-18T08:19:40;101343.38;;;1.56;100.00
35023;BME280;21214;44.912;8.204;2022-12-18T08:22:06;101344.19;;;1.58;100.00
35023;BME280;21214;44.912;8.204;2022-12-18T08:24:31;101347.69;;;1.57;100.00
35023;BME280;21214;44.912;8.204;2022-12-18T08:26:56;101347.69;;;1.57;100.00
35023;BME280;21214;44.912;8.204;2022-12-18T08:29:22;101356.25;;;1.60;100.00
35023;BME280;21214;44.912;8.204;2022-12-18T08:31:47;101351.03;;;1.60;100.00
35023;BME280;21214;44.912;8.204;2022-12-18T08:34:13;101358.81;;;1.62;100.00
35023;BME280;21214;44.912;8.204;2022-12-18T08:36:38;101358.72;;;1.65;100.00
35023;BME280;21214;44.912;8.204;2022-12-18T08:39:04;101364.78;;;1.65;100.00
35023;BME280;21214;44.912;8.204;2022-12-18T08:41:29;101366.44;;;1.68;100.00
35023;BME280;21214;44.912;8.204;2022-12-18T08:43:54;101372.38;;;1.73;100.00
35023;BME280;21214;44.912;8.204;2022-12-18T08:46:39;101375.69;;;1.78;100.00
35023;BME280;21214;44.912;8.204;2022-12-18T08:49:05;101372.31;;;1.76;100.00
35023;BME280;21214;44.912;8.204;2022-12-18T08:51:32;101378.31;;;1.78;100.00
35023;BME280;21214;44.912;8.204;2022-12-18T08:53:57;101381.59;;;1.85;100.00
35023;BME280;21214;44.912;8.204;2022-12-18T08:56:22;101378.00;;;1.89;100.00
35023;BME280;21214;44.912;8.204;2022-12-18T08:58:50;101372.69;;;1.93;100.00
35023;BME280;21214;44.912;8.204;2022-12-18T09:01:16;101379.63;;;1.93;100.00
35023;BME280;21214;44.912;8.204;2022-12-18T09:03:41;101376.34;;;1.86;100.00
35023;BME280;21214;44.912;8.204;2022-12-18T09:06:07;101378.94;;;1.86;100.00
35023;BME280;21214;44.912;8.204;2022-12-18T09:08:32;101384.19;;;1.85;100.00
35023;BME280;21214;44.912;8.204;2022-12-18T09:10:59;101386.72;;;1.88;100.00
35023;BME280;21214;44.912;8.204;2022-12-18T09:13:24;101387.47;;;1.91;100.00
35023;BME280;21214;44.912;8.204;2022-12-18T09:15:51;101388.16;;;1.98;100.00
35023;BME280;21214;44.912;8.204;2022-12-18T09:18:18;101390.63;;;2.02;100.00
35023;BME280;21214;44.912;8.204;2022-12-18T09:20:44;101395.09;;;1.99;100.00
35023;BME280;21214;44.912;8.204;2022-12-18T09:23:10;101402.03;;;1.98;100.00
35023;BME280;21214;44.912;8.204;2022-12-18T09:25:36;101400.19;;;2.02;100.00
35023;BME280;21214;44.912;8.204;2022-12-18T09:28:02;101399.34;;;2.01;100.00
35023;BME280;21214;44.912;8.204;2022-12-18T09:30:28;101404.47;;;2.04;100.00
35023;BME280;21214;44.912;8.204;2022-12-18T09:32:54;101406.06;;;2.09;100.00
35023;BME280;21214;44.912;8.204;2022-12-18T09:35:19;101400.69;;;2.15;100.00
35023;BME280;21214;44.912;8.204;2022-12-18T09:37:45;101401.34;;;2.23;100.00
35023;BME280;21214;44.912;8.204;2022-12-18T09:40:15;101398.53;;;2.29;100.00
35023;BME280;21214;44.912;8.204;2022-12-18T09:42:41;101394.94;;;2.33;100.00
35023;BME280;21214;44.912;8.204;2022-12-18T09:45:11;101407.75;;;2.40;100.00
35023;BME280;21214;44.912;8.204;2022-12-18T09:47:39;101403.28;;;2.44;100.00
35023;BME280;21214;44.912;8.204;2022-12-18T09:50:27;101408.53;;;2.42;100.00
35023;BME280;21214;44.912;8.204;2022-12-18T09:52:56;101407.59;;;2.45;100.00
35023;BME280;21214;44.912;8.204;2022-12-18T09:55:34;101411.91;;;2.46;100.00
35023;BME280;21214;44.912;8.204;2022-12-18T09:58:22;101411.81;;;2.49;100.00
35023;BME280;21214;44.912;8.204;2022-12-18T10:00:45;101403.94;;;2.51;100.00
35023;BME280;21214;44.912;8.204;2022-12-18T10:03:14;101406.41;;;2.55;100.00
35023;BME280;21214;44.912;8.204;2022-12-18T10:05:43;101401.00;;;2.61;100.00
35023;BME280;21214;44.912;8.204;2022-12-18T10:08:17;101405.19;;;2.67;100.00
35023;BME280;21214;44.912;8.204;2022-12-18T10:13:16;101397.78;;;2.81;100.00
35023;BME280;21214;44.912;8.204;2022-12-18T10:15:49;101405.38;;;2.88;100.00
35023;BME280;21214;44.912;8.204;2022-12-18T10:18:36;101409.63;;;2.91;100.00
35023;BME280;21214;44.912;8.204;2022-12-18T10:21:15;101413.91;;;2.94;100.00
35023;BME280;21214;44.912;8.204;2022-12-18T10:23:46;101405.09;;;2.96;100.00
35023;BME280;21214;44.912;8.204;2022-12-18T10:26:16;101405.03;;;2.99;100.00
35023;BME280;21214;44.912;8.204;2022-12-18T10:28:42;101399.66;;;3.04;100.00
35023;BME280;21214;44.912;8.204;2022-12-18T10:31:15;101395.25;;;3.06;100.00
35023;BME280;21214;44.912;8.204;2022-12-18T10:33:42;101399.53;;;3.07;100.00
35023;BME280;21214;44.912;8.204;2022-12-18T10:36:07;101395.09;;;3.10;100.00
35023;BME280;21214;44.912;8.204;2022-12-18T10:38:33;101395.81;;;3.14;100.00
35023;BME280;21214;44.912;8.204;2022-12-18T10:48:34;101389.47;;;3.22;100.00
35023;BME280;21214;44.912;8.204;2022-12-18T10:51:01;101397.25;;;3.24;100.00
35023;BME280;21214;44.912;8.204;2022-12-18T10:53:28;101391.94;;;3.25;100.00
35023;BME280;21214;44.912;8.204;2022-12-18T10:55:57;101393.66;;;3.26;100.00
35023;BME280;21214;44.912;8.204;2022-12-18T10:58:30;101395.22;;;3.32;100.00
35023;BME280;21214;44.912;8.204;2022-12-18T11:01:12;101389.91;;;3.35;100.00
35023;BME280;21214;44.912;8.204;2022-12-18T11:08:29;101395.59;;;3.46;100.00
35023;BME280;21214;44.912;8.204;2022-12-18T11:10:54;101394.56;;;3.50;100.00
35023;BME280;21214;44.912;8.204;2022-12-18T11:13:21;101392.78;;;3.52;100.00
35023;BME280;21214;44.912;8.204;2022-12-18T11:15:47;101398.78;;;3.54;100.00
35023;BME280;21214;44.912;8.204;2022-12-18T11:20:55;101394.16;;;3.62;100.00
35023;BME280;21214;44.912;8.204;2022-12-18T11:23:22;101394.97;;;3.64;100.00
35023;BME280;21214;44.912;8.204;2022-12-18T11:26:06;101394.78;;;3.69;100.00
35023;BME280;21214;44.912;8.204;2022-12-18T11:31:11;101386.69;;;3.77;100.00
35023;BME280;21214;44.912;8.204;2022-12-18T11:33:37;101386.56;;;3.80;100.00
35023;BME280;21214;44.912;8.204;2022-12-18T11:36:04;101382.16;;;3.82;100.00
35023;BME280;21214;44.912;8.204;2022-12-18T11:38:36;101388.16;;;3.84;100.00
35023;BME280;21214;44.912;8.204;2022-12-18T11:41:05;101387.94;;;3.90;100.00
35023;BME280;21214;44.912;8.204;2022-12-18T11:43:54;101380.91;;;3.92;100.00
35023;BME280;21214;44.912;8.204;2022-12-18T11:46:34;101384.13;;;3.98;100.00
35023;BME280;21214;44.912;8.204;2022-12-18T11:49:03;101384.00;;;4.01;100.00
35023;BME280;21214;44.912;8.204;2022-12-18T11:52:18;101378.75;;;4.03;100.00
35023;BME280;21214;44.912;8.204;2022-12-18T11:54:17;101377.84;;;4.04;100.00
35023;BME280;21214;44.912;8.204;2022-12-18T11:56:46;101375.22;;;4.04;100.00
35023;BME280;21214;44.912;8.204;2022-12-18T12:01:51;101371.56;;;4.08;100.00
35023;BME280;21214;44.912;8.204;2022-12-18T12:07:03;101369.53;;;4.16;100.00
35023;BME280;21214;44.912;8.204;2022-12-18T12:09:51;101380.84;;;4.17;100.00
35023;BME280;21214;44.912;8.204;2022-12-18T12:17:21;101374.75;;;4.16;100.00
35023;BME280;21214;44.912;8.204;2022-12-18T12:20:00;101370.50;;;4.13;100.00
35023;BME280;21214;44.912;8.204;2022-12-18T12:31:07;101353.25;;;4.09;100.00
35023;BME280;21214;44.912;8.204;2022-12-18T12:33:17;101349.66;;;4.12;100.00
35023;BME280;21214;44.912;8.204;2022-12-18T12:36:07;101358.19;;;4.17;100.00
35023;BME280;21214;44.912;8.204;2022-12-18T12:38:43;101346.47;;;4.27;100.00
35023;BME280;21214;44.912;8.204;2022-12-18T12:41:12;101346.84;;;4.40;100.00
35023;BME280;21214;44.912;8.204;2022-12-18T12:44:00;101347.22;;;4.52;100.00
35023;BME280;21214;44.912;8.204;2022-12-18T12:46:27;101355.34;;;4.67;100.00
35023;BME280;21214;44.912;8.204;2022-12-18T12:48:59;101345.28;;;4.78;100.00
35023;BME280;21214;44.912;8.204;2022-12-18T12:51:48;101340.59;;;4.86;100.00
35023;BME280;21214;44.912;8.204;2022-12-18T12:54:19;101342.06;;;4.93;100.00
35023;BME280;21214;44.912;8.204;2022-12-18T13:05:33;101340.22;;;4.95;100.00
35023;BME280;21214;44.912;8.204;2022-12-18T13:10:42;101340.91;;;5.00;100.00
35023;BME280;21214;44.912;8.204;2022-12-18T13:15:36;101335.47;;;5.05;100.00
35023;BME280;21214;44.912;8.204;2022-12-18T13:21:02;101341.03;;;5.17;100.00
35023;BME280;21214;44.912;8.204;2022-12-18T13:25:46;101330.31;;;5.23;100.00
35023;BME280;21214;44.912;8.204;2022-12-18T13:40:56;101329.94;;;5.51;100.00
35023;BME280;21214;44.912;8.204;2022-12-18T13:48:23;101325.19;;;5.41;100.00
35023;BME280;21214;44.912;8.204;2022-12-18T13:50:53;101329.69;;;5.37;100.00
35023;BME280;21214;44.912;8.204;2022-12-18T13:53:29;101331.72;;;5.30;100.00
35023;BME280;21214;44.912;8.204;2022-12-18T13:55:56;101335.66;;;5.20;100.00
35023;BME280;21214;44.912;8.204;2022-12-18T13:58:22;101331.59;;;5.13;100.00
35023;BME280;21214;44.912;8.204;2022-12-18T14:00:47;101333.69;;;5.05;100.00
35023;BME280;21214;44.912;8.204;2022-12-18T14:03:31;101341.00;;;4.97;100.00
35023;BME280;21214;44.912;8.204;2022-12-18T14:05:58;101338.66;;;4.91;100.00
35023;BME280;21214;44.912;8.204;2022-12-18T14:08:25;101340.59;;;4.86;100.00
35023;BME280;21214;44.912;8.204;2022-12-18T14:10:52;101340.75;;;4.83;100.00
35023;BME280;21214;44.912;8.204;2022-12-18T14:13:24;101332.22;;;4.78;100.00
35023;BME280;21214;44.912;8.204;2022-12-18T14:15:52;101342.81;;;4.75;100.00
35023;BME280;21214;44.912;8.204;2022-12-18T14:18:21;101336.06;;;4.69;100.00
35023;BME280;21214;44.912;8.204;2022-12-18T14:20:52;101329.19;;;4.67;100.00
35023;BME280;21214;44.912;8.204;2022-12-18T14:23:31;101327.47;;;4.66;100.00
35023;BME280;21214;44.912;8.204;2022-12-18T14:25:57;101338.88;;;4.65;100.00
35023;BME280;21214;44.912;8.204;2022-12-18T14:28:22;101330.28;;;4.61;100.00
35023;BME280;21214;44.912;8.204;2022-12-18T14:30:48;101335.56;;;4.60;100.00
35023;BME280;21214;44.912;8.204;2022-12-18T14:33:32;101329.56;;;4.58;100.00
35023;BME280;21214;44.912;8.204;2022-12-18T14:36:00;101333.09;;;4.57;100.00
35023;BME280;21214;44.912;8.204;2022-12-18T14:38:30;101340.13;;;4.54;100.00
35023;BME280;21214;44.912;8.204;2022-12-18T14:43:21;101341.97;;;4.52;100.00